createdAt,value
2019-03-22T00:04:00.697Z,8.50
2019-03-22T00:08:13.359Z,8.40
2019-03-22T00:12:24.444Z,8.40
2019-03-22T00:16:35.616Z,8.20
2019-03-22T00:20:46.648Z,8.30
2019-03-22T00:24:58.332Z,8.30
2019-03-22T00:29:09.490Z,8.30
2019-03-22T00:33:20.554Z,8.30
2019-03-22T00:37:31.601Z,8.20
2019-03-22T00:41:42.939Z,8.00
2019-03-22T00:45:55.006Z,8.00
2019-03-22T00:50:09.119Z,8.00
2019-03-22T00:54:20.854Z,8.10
2019-03-22T00:58:32.065Z,8.00
2019-03-22T01:02:43.151Z,7.80
2019-03-22T01:06:54.211Z,7.70
2019-03-22T01:11:05.336Z,7.80
2019-03-22T01:15:16.577Z,7.80
2019-03-22T01:19:27.942Z,7.90
2019-03-22T01:23:39.093Z,7.90
2019-03-22T01:27:51.796Z,7.80
2019-03-22T01:32:04.086Z,7.70
2019-03-22T01:36:15.218Z,7.70
2019-03-22T01:40:26.350Z,7.60
2019-03-22T01:44:37.714Z,7.50
2019-03-22T01:48:48.339Z,7.40
2019-03-22T01:53:00.847Z,7.40
2019-03-22T01:57:11.012Z,7.20
2019-03-22T02:01:22.101Z,7.00
2019-03-22T02:05:33.413Z,6.90
2019-03-22T02:09:44.753Z,6.80
2019-03-22T02:13:56.465Z,6.80
2019-03-22T02:18:07.996Z,6.70
2019-03-22T02:22:19.103Z,6.70
2019-03-22T02:26:30.267Z,6.60
2019-03-22T02:30:43.547Z,6.60
2019-03-22T02:34:55.001Z,6.50
2019-03-22T02:39:08.349Z,6.50
2019-03-22T02:43:19.548Z,6.60
2019-03-22T02:47:30.673Z,6.60
2019-03-22T02:51:42.232Z,6.70
2019-03-22T02:55:53.654Z,6.70
2019-03-22T03:00:13.795Z,6.60
2019-03-22T03:04:24.822Z,6.60
2019-03-22T03:08:35.973Z,6.50
2019-03-22T03:12:46.960Z,6.50
2019-03-22T03:16:58.115Z,6.50
2019-03-22T03:21:10.977Z,6.40
2019-03-22T03:25:22.369Z,6.40
2019-03-22T03:29:34.269Z,6.40
2019-03-22T03:33:45.386Z,6.40
2019-03-22T03:37:56.548Z,6.40
2019-03-22T03:42:07.632Z,6.40
2019-03-22T03:46:18.807Z,6.40
2019-03-22T03:50:31.434Z,6.40
2019-03-22T03:54:42.611Z,6.40
2019-03-22T03:58:53.656Z,6.30
2019-03-22T04:03:05.869Z,6.30
2019-03-22T04:07:19.264Z,6.20
2019-03-22T04:11:30.287Z,6.20
2019-03-22T04:15:41.366Z,6.20
2019-03-22T04:19:53.950Z,6.20
2019-03-22T04:24:05.119Z,6.20
2019-03-22T04:28:18.016Z,6.20
2019-03-22T04:32:30.547Z,6.20
2019-03-22T04:36:41.611Z,6.10
2019-03-22T04:40:52.789Z,6.10
2019-03-22T04:45:06.574Z,6.00
2019-03-22T04:49:20.002Z,6.00
2019-03-22T04:53:34.177Z,5.90
2019-03-22T04:57:47.832Z,5.90
2019-03-22T05:02:02.005Z,5.90
2019-03-22T05:06:14.109Z,5.90
2019-03-22T05:10:27.025Z,5.90
2019-03-22T05:14:41.334Z,5.80
2019-03-22T05:18:53.938Z,5.80
2019-03-22T05:23:06.136Z,5.80
2019-03-22T05:27:19.860Z,5.90
2019-03-22T05:31:40.862Z,6.10
2019-03-22T05:35:53.401Z,6.40
2019-03-22T05:40:06.510Z,6.50
2019-03-22T05:44:18.654Z,6.70
2019-03-22T05:48:31.477Z,6.60
2019-03-22T05:52:45.803Z,6.60
2019-03-22T05:56:58.528Z,6.60
2019-03-22T06:01:09.620Z,6.60
2019-03-22T06:05:20.682Z,6.60
2019-03-22T06:09:33.031Z,6.60
2019-03-22T06:13:44.506Z,6.80
2019-03-22T06:17:55.958Z,6.90
2019-03-22T06:22:10.025Z,7.10
2019-03-22T06:26:21.072Z,7.20
2019-03-22T06:30:32.685Z,7.20
2019-03-22T06:34:43.735Z,7.30
2019-03-22T06:38:54.865Z,7.50
2019-03-22T06:43:05.881Z,8.10
2019-03-22T06:47:16.938Z,8.60
2019-03-22T06:51:28.358Z,8.80
2019-03-22T06:55:39.420Z,8.80
2019-03-22T06:59:50.519Z,8.90
2019-03-22T07:04:01.574Z,9.10
2019-03-22T07:08:13.416Z,10.00
2019-03-22T07:12:25.730Z,10.80
2019-03-22T07:16:36.883Z,10.60
2019-03-22T07:20:49.712Z,10.70
2019-03-22T07:25:00.688Z,11.50
2019-03-22T07:29:11.753Z,12.30
2019-03-22T07:33:25.025Z,12.70
2019-03-22T07:37:36.151Z,12.50
2019-03-22T07:41:47.494Z,12.20
2019-03-22T07:45:58.537Z,11.90
2019-03-22T07:50:12.681Z,11.60
2019-03-22T07:54:23.728Z,11.50
2019-03-22T07:58:34.866Z,11.90
2019-03-22T08:02:45.511Z,11.90
2019-03-22T08:07:01.254Z,12.10
2019-03-22T08:11:12.030Z,12.10
2019-03-22T08:15:31.241Z,12.80
2019-03-22T08:19:43.908Z,13.40
2019-03-22T08:23:55.631Z,13.70
2019-03-22T08:28:06.665Z,14.00
2019-03-22T08:32:18.973Z,14.10
2019-03-22T08:36:29.989Z,14.60
2019-03-22T08:40:41.319Z,14.90
2019-03-22T08:44:52.468Z,15.00
2019-03-22T08:49:04.808Z,15.20
2019-03-22T08:53:16.050Z,15.40
2019-03-22T08:57:27.834Z,15.70
2019-03-22T09:01:39.287Z,16.20
2019-03-22T09:05:51.617Z,16.50
2019-03-22T09:10:02.746Z,16.70
2019-03-22T09:14:13.825Z,16.50
2019-03-22T09:18:25.217Z,16.70
2019-03-22T09:22:40.341Z,16.80
2019-03-22T09:26:52.920Z,17.30
2019-03-22T09:31:10.618Z,16.90
2019-03-22T09:35:19.373Z,16.80
2019-03-22T09:39:30.509Z,17.30
2019-03-22T09:43:40.628Z,17.10
2019-03-22T09:47:53.521Z,17.00
2019-03-22T09:52:05.107Z,17.00
2019-03-22T09:56:16.214Z,17.30
2019-03-22T10:00:37.490Z,17.40
2019-03-22T10:04:49.320Z,17.30
2019-03-22T10:09:05.081Z,17.50
2019-03-22T10:13:13.857Z,17.70
2019-03-22T10:17:25.028Z,17.70
2019-03-22T10:21:36.621Z,17.50
2019-03-22T10:25:47.795Z,17.40
2019-03-22T10:29:58.850Z,17.70
2019-03-22T10:34:10.698Z,17.80
2019-03-22T10:38:30.845Z,18.00
2019-03-22T10:42:36.950Z,18.00
2019-03-22T10:46:55.650Z,18.00
2019-03-22T10:51:01.956Z,18.30
2019-03-22T10:55:28.885Z,18.40
2019-03-22T10:59:26.891Z,18.70
2019-03-22T11:03:40.022Z,19.00
2019-03-22T11:07:51.179Z,19.00
2019-03-22T11:12:11.914Z,19.30
2019-03-22T11:16:15.460Z,20.00
2019-03-22T11:20:26.579Z,19.90
2019-03-22T11:24:37.733Z,19.80
2019-03-22T11:28:48.888Z,20.20
2019-03-22T11:33:00.005Z,20.30
2019-03-22T11:37:12.118Z,20.90
2019-03-22T11:41:25.569Z,21.60
2019-03-22T11:45:37.709Z,21.50
2019-03-22T11:49:49.377Z,22.50
2019-03-22T11:54:00.436Z,23.10
2019-03-22T11:58:11.492Z,23.20
2019-03-22T12:02:23.025Z,22.40
2019-03-22T12:06:34.397Z,23.60
2019-03-22T12:10:45.787Z,23.10
2019-03-22T12:14:57.859Z,23.10
2019-03-22T12:19:10.888Z,23.10
2019-03-22T12:23:22.181Z,23.20
2019-03-22T12:27:36.799Z,22.50
2019-03-22T12:31:47.163Z,21.20
2019-03-22T12:35:59.847Z,19.70
2019-03-22T12:40:16.918Z,19.10
2019-03-22T12:44:28.163Z,19.10
2019-03-22T12:48:39.254Z,18.90
2019-03-22T12:52:50.418Z,18.70
2019-03-22T12:57:01.606Z,18.90
2019-03-22T13:01:14.240Z,18.60
2019-03-22T13:05:25.976Z,18.50
2019-03-22T13:09:37.282Z,18.30
2019-03-22T13:13:48.324Z,18.30
2019-03-22T13:17:59.037Z,18.40
2019-03-22T13:22:11.890Z,18.50
2019-03-22T13:26:24.613Z,18.40
2019-03-22T13:30:38.300Z,18.40
2019-03-22T13:34:50.031Z,18.40
2019-03-22T13:39:01.050Z,18.20
2019-03-22T13:43:12.299Z,18.20
2019-03-22T13:47:22.460Z,18.30
2019-03-22T13:51:33.741Z,18.40
2019-03-22T13:55:44.357Z,18.40
2019-03-22T13:59:55.465Z,18.40
2019-03-22T14:04:06.793Z,18.40
2019-03-22T14:08:18.350Z,18.50
2019-03-22T14:12:36.946Z,18.40
2019-03-22T14:16:43.749Z,18.30
2019-03-22T14:20:54.913Z,18.20
2019-03-22T14:25:07.177Z,18.30
2019-03-22T14:29:18.421Z,18.20
2019-03-22T14:33:29.710Z,18.10
2019-03-22T14:37:42.307Z,18.00
2019-03-22T14:41:55.388Z,18.10
2019-03-22T14:46:06.708Z,18.10
2019-03-22T14:50:17.924Z,17.90
2019-03-22T14:54:30.874Z,17.90
2019-03-22T14:58:42.229Z,17.80
2019-03-22T15:02:53.280Z,17.90
2019-03-22T15:07:05.102Z,17.80
2019-03-22T15:11:15.284Z,17.70
2019-03-22T15:15:42.988Z,17.60
2019-03-22T15:20:08.242Z,17.60
2019-03-22T15:24:36.881Z,17.60
2019-03-22T15:29:05.776Z,17.60
2019-03-22T15:33:21.488Z,17.60
2019-03-22T15:37:50.658Z,17.60
2019-03-22T15:42:02.185Z,17.40
2019-03-22T15:46:13.640Z,17.50
2019-03-22T15:50:24.944Z,17.40
2019-03-22T15:54:36.450Z,17.50
2019-03-22T15:58:47.472Z,17.40
2019-03-22T16:02:59.090Z,17.40
2019-03-22T16:07:10.352Z,17.40
2019-03-22T16:11:22.128Z,17.30
2019-03-22T16:15:33.908Z,17.20
2019-03-22T16:19:45.025Z,17.20
2019-03-22T16:23:56.105Z,17.10
2019-03-22T16:28:07.773Z,17.10
2019-03-22T16:32:22.426Z,16.90
2019-03-22T16:36:33.846Z,16.80
2019-03-22T16:40:45.066Z,16.90
2019-03-22T16:44:56.444Z,17.00
2019-03-22T16:49:09.149Z,16.80
2019-03-22T16:53:21.012Z,16.60
2019-03-22T16:57:32.427Z,16.40
2019-03-22T17:01:44.008Z,16.30
2019-03-22T17:05:55.541Z,16.20
2019-03-22T17:10:08.112Z,16.10
2019-03-22T17:14:19.294Z,15.90
2019-03-22T17:18:32.936Z,15.80
2019-03-22T17:22:44.225Z,15.60
2019-03-22T17:26:55.254Z,15.50
2019-03-22T17:31:06.300Z,15.40
2019-03-22T17:35:17.580Z,15.20
2019-03-22T17:39:28.787Z,15.10
2019-03-22T17:43:41.653Z,15.00
2019-03-22T17:47:55.551Z,14.80
2019-03-22T17:52:06.619Z,14.70
2019-03-22T17:56:16.754Z,14.50
2019-03-22T18:00:29.725Z,14.50
2019-03-22T18:04:52.223Z,14.40
2019-03-22T18:08:57.511Z,14.30
2019-03-22T18:13:09.018Z,14.20
2019-03-22T18:17:20.180Z,14.10
2019-03-22T18:21:31.966Z,14.00
2019-03-22T18:25:43.231Z,14.00
2019-03-22T18:29:55.917Z,14.00
2019-03-22T18:34:06.969Z,14.00
2019-03-22T18:38:20.123Z,13.90
2019-03-22T18:42:31.356Z,13.80
2019-03-22T18:46:41.693Z,13.70
2019-03-22T18:50:57.034Z,13.70
2019-03-22T18:55:07.549Z,13.60
2019-03-22T18:59:18.845Z,13.60
2019-03-22T19:03:29.901Z,13.50
2019-03-22T19:07:42.650Z,13.50
2019-03-22T19:11:53.900Z,13.40
2019-03-22T19:16:05.307Z,13.40
2019-03-22T19:20:16.898Z,13.30
2019-03-22T19:24:28.162Z,13.20
2019-03-22T19:28:39.426Z,13.10
2019-03-22T19:32:50.507Z,13.00
2019-03-22T19:37:01.599Z,12.90
2019-03-22T19:41:12.662Z,12.80
2019-03-22T19:45:26.164Z,12.80
2019-03-22T19:49:36.865Z,12.70
2019-03-22T19:53:48.248Z,12.50
2019-03-22T19:58:00.620Z,12.50
2019-03-22T20:02:11.652Z,12.40
2019-03-22T20:06:22.812Z,12.40
2019-03-22T20:10:33.992Z,12.30
2019-03-22T20:14:45.241Z,12.20
2019-03-22T20:18:56.345Z,12.20
2019-03-22T20:23:08.888Z,12.10
2019-03-22T20:27:19.529Z,12.00
2019-03-22T20:31:30.212Z,11.90
2019-03-22T20:35:41.377Z,11.90
2019-03-22T20:39:52.544Z,11.90
2019-03-22T20:44:03.884Z,11.90
2019-03-22T20:48:14.943Z,11.90
2019-03-22T20:52:26.005Z,11.80
2019-03-22T20:56:37.104Z,11.70
2019-03-22T21:00:50.406Z,11.70
2019-03-22T21:05:02.160Z,11.60
2019-03-22T21:09:13.409Z,11.60
2019-03-22T21:13:24.703Z,11.60
2019-03-22T21:17:35.724Z,11.60
2019-03-22T21:21:46.781Z,11.50
2019-03-22T21:25:58.311Z,11.50
2019-03-22T21:30:12.426Z,11.50
2019-03-22T21:34:23.555Z,11.50
2019-03-22T21:38:36.046Z,11.50
2019-03-22T21:42:47.271Z,11.50
2019-03-22T21:46:58.361Z,11.40
2019-03-22T21:51:09.607Z,11.50
2019-03-22T21:55:21.192Z,11.40
2019-03-22T21:59:31.411Z,11.30
2019-03-22T22:03:43.685Z,11.30
2019-03-22T22:07:54.859Z,11.30
2019-03-22T22:12:06.098Z,11.30
2019-03-22T22:16:17.698Z,11.30
2019-03-22T22:20:31.399Z,11.30
2019-03-22T22:24:42.992Z,11.20
2019-03-22T22:28:54.163Z,11.20
2019-03-22T22:33:05.550Z,11.20
2019-03-22T22:37:16.882Z,11.20
2019-03-22T22:41:28.104Z,11.20
2019-03-22T22:45:39.256Z,11.10
2019-03-22T22:49:50.579Z,11.10
2019-03-22T22:54:01.841Z,11.10
2019-03-22T22:58:13.100Z,11.00
2019-03-22T23:02:24.421Z,11.00
2019-03-22T23:06:35.596Z,11.00
2019-03-22T23:10:46.869Z,11.00
2019-03-22T23:14:58.668Z,10.90
2019-03-22T23:19:10.138Z,10.90
2019-03-22T23:23:20.345Z,10.80
2019-03-22T23:27:31.683Z,10.70
2019-03-22T23:31:42.869Z,10.70
2019-03-22T23:35:54.097Z,10.60
2019-03-22T23:40:08.595Z,10.50
2019-03-22T23:44:20.490Z,10.50
2019-03-22T23:48:32.519Z,10.40
2019-03-22T23:52:43.809Z,10.40
2019-03-22T23:56:54.961Z,10.30
